Decoded Metar for LYVR (VRSAC in SERBIA) (IATA:N/A) | Meteo·Mobile Aviation Weather
aviador You're here:

LYVR Decoded Metar

VRSAC in SERBIA
Report Time2018-12-19 01:00:00
UTC Time2018-12-19 01:08:02
Flight Rules lifr LIFR
WindCalm
Visibility3000 m
Phenomena:Mist
Clouds:Overcast 003 Hf
Expected CloudBase > 400 ft AGL from Temp-Dew spread
Ceiling300 ft
Temp-7°C (ISA -21)
Dew Point-8°C (93% RH)
AAT-9.9°C
QNH1030 hPa
Density Alt-2,917 ft
Elevation279 ft
Report Wrong Elevation
Raw Report
METAR LYVR 190100Z 00000KT 3000 BR OVC003 M07/M08 Q1030 R01///////
NOSIG=

Extra information for LYVR:More info

Metar Taf Metar & Taf Last 4 Metars F.Rules Stats Wind Profile Meteogram Temp Stats Airport Information Weather charts Add Link Nearby VenuesMetar ALERT Operation Metar Decoded Social comments